createdAt,value
2024-05-09T00:02:00.496Z,54.17
2024-05-09T00:04:49.908Z,47.25
2024-05-09T00:07:39.448Z,57.03
2024-05-09T00:10:35.589Z,46.08
2024-05-09T00:13:27.372Z,49.92
2024-05-09T00:16:19.307Z,52.90
2024-05-09T00:19:08.638Z,48.88
2024-05-09T00:21:57.840Z,51.80
2024-05-09T00:24:46.778Z,52.22
2024-05-09T00:27:35.928Z,49.97
2024-05-09T00:30:33.173Z,47.90
2024-05-09T00:33:28.188Z,44.40
2024-05-09T00:36:17.833Z,51.40
2024-05-09T00:39:07.247Z,48.22
2024-05-09T00:41:56.195Z,58.75
2024-05-09T00:44:45.334Z,48.40
2024-05-09T00:47:34.813Z,56.45
2024-05-09T00:50:35.477Z,42.08
2024-05-09T00:53:27.299Z,50.42
2024-05-09T00:56:17.112Z,47.08
2024-05-09T00:59:06.564Z,41.40
2024-05-09T01:01:56.683Z,43.17
2024-05-09T01:04:46.001Z,42.55
2024-05-09T01:07:38.178Z,50.22
2024-05-09T01:10:34.515Z,56.72
2024-05-09T01:13:24.774Z,49.17
2024-05-09T01:16:15.387Z,42.85
2024-05-09T01:19:07.524Z,43.33
2024-05-09T01:21:56.869Z,45.40
2024-05-09T01:24:48.905Z,46.15
2024-05-09T01:27:38.052Z,43.58
2024-05-09T01:30:33.944Z,37.28
2024-05-09T01:33:26.096Z,56.53
2024-05-09T01:36:15.683Z,53.78
2024-05-09T01:39:04.998Z,50.20
2024-05-09T01:41:57.109Z,62.75
2024-05-09T01:44:47.083Z,46.10
2024-05-09T01:47:36.473Z,49.35
2024-05-09T01:50:37.006Z,43.20
2024-05-09T01:53:30.099Z,41.80
2024-05-09T01:56:19.718Z,40.72
2024-05-09T01:59:11.557Z,43.10
2024-05-09T02:02:01.380Z,43.28
2024-05-09T02:04:50.752Z,47.85
2024-05-09T02:07:39.956Z,50.28
2024-05-09T02:10:32.649Z,48.70
2024-05-09T02:13:22.887Z,57.55
2024-05-09T02:16:16.675Z,53.72
2024-05-09T02:19:06.489Z,46.25
2024-05-09T02:21:55.300Z,47.55
2024-05-09T02:24:44.780Z,51.05
2024-05-09T02:27:36.035Z,52.80
2024-05-09T02:30:35.129Z,47.13
2024-05-09T02:33:32.440Z,52.17
2024-05-09T02:36:22.739Z,45.17
2024-05-09T02:39:08.965Z,51.30
2024-05-09T02:41:57.956Z,46.97
2024-05-09T02:44:44.107Z,48.63
2024-05-09T02:47:33.182Z,43.05
2024-05-09T02:50:30.241Z,53.05
2024-05-09T02:56:12.731Z,40.05
2024-05-09T02:59:02.021Z,37.38
2024-05-09T03:01:48.783Z,43.30
2024-05-09T03:04:38.061Z,44.22
2024-05-09T03:07:27.406Z,41.15
2024-05-09T03:10:22.349Z,49.58
2024-05-09T03:13:16.585Z,48.63
2024-05-09T03:16:03.115Z,43.63
2024-05-09T03:18:52.481Z,44.30
2024-05-09T03:21:40.327Z,46.80
2024-05-09T03:24:32.095Z,44.33
2024-05-09T03:27:21.197Z,45.47
2024-05-09T03:30:09.967Z,61.92
2024-05-09T03:33:01.868Z,42.58
2024-05-09T03:35:49.255Z,43.45
2024-05-09T03:38:42.825Z,40.70
2024-05-09T03:41:35.241Z,39.55
2024-05-09T03:44:24.490Z,43.58
2024-05-09T03:47:14.687Z,40.15
2024-05-09T03:50:01.441Z,62.15
2024-05-09T03:52:50.957Z,56.08
2024-05-09T03:55:37.682Z,43.35
2024-05-09T03:58:29.777Z,54.67
2024-05-09T04:01:16.296Z,45.72
2024-05-09T04:04:05.433Z,40.53
2024-05-09T04:06:51.736Z,40.15
2024-05-09T04:09:40.803Z,48.20
2024-05-09T04:12:30.126Z,42.20
2024-05-09T04:15:19.324Z,43.40
2024-05-09T04:18:08.765Z,48.55
2024-05-09T04:20:59.749Z,41.72
2024-05-09T04:23:49.162Z,45.00
2024-05-09T04:26:38.519Z,40.45
2024-05-09T04:29:24.964Z,45.08
2024-05-09T04:32:17.122Z,59.80
2024-05-09T04:35:04.836Z,47.78
2024-05-09T04:37:54.217Z,57.63
2024-05-09T04:40:40.688Z,70.28
2024-05-09T04:43:29.946Z,45.58
2024-05-09T04:46:16.388Z,47.67
2024-05-09T04:49:08.616Z,42.03
2024-05-09T04:51:55.307Z,43.83
2024-05-09T04:54:44.205Z,47.53
2024-05-09T04:57:30.851Z,41.30
2024-05-09T05:00:28.601Z,53.83
2024-05-09T05:03:22.235Z,38.83
2024-05-09T05:06:14.418Z,37.42
2024-05-09T05:09:00.987Z,40.13
2024-05-09T05:11:50.124Z,32.58
2024-05-09T05:14:36.542Z,33.63
2024-05-09T05:17:26.569Z,49.60
2024-05-09T05:20:17.866Z,43.38
2024-05-09T05:23:15.472Z,32.45
2024-05-09T05:26:02.437Z,35.05
2024-05-09T05:28:51.621Z,33.00
2024-05-09T05:31:41.414Z,31.48
2024-05-09T05:34:27.903Z,32.42
2024-05-09T05:37:16.861Z,33.75
2024-05-09T05:40:09.364Z,34.53
2024-05-09T05:43:01.054Z,33.47
2024-05-09T05:45:47.792Z,34.80
2024-05-09T05:48:36.901Z,38.17
2024-05-09T05:51:23.408Z,34.28
2024-05-09T05:54:12.788Z,31.92
2024-05-09T05:57:01.978Z,29.98
2024-05-09T05:59:51.184Z,31.65
2024-05-09T06:02:37.580Z,31.35
2024-05-09T06:05:27.723Z,33.25
2024-05-09T06:08:14.813Z,31.73
2024-05-09T06:11:03.859Z,30.45
2024-05-09T06:13:53.453Z,29.35
2024-05-09T06:16:42.742Z,26.77
2024-05-09T06:19:29.734Z,30.27
2024-05-09T06:22:18.768Z,26.25
2024-05-09T06:25:06.248Z,28.40
2024-05-09T06:27:55.823Z,25.45
2024-05-09T06:30:47.746Z,27.45
2024-05-09T06:33:37.061Z,24.95
2024-05-09T06:36:24.544Z,26.10
2024-05-09T06:39:13.393Z,26.77
2024-05-09T06:41:59.796Z,24.27
2024-05-09T06:44:49.366Z,24.92
2024-05-09T06:47:40.684Z,28.55
2024-05-09T06:50:36.847Z,24.38
2024-05-09T06:53:25.123Z,22.73
2024-05-09T06:56:14.457Z,20.55
2024-05-09T06:59:01.086Z,21.33
2024-05-09T07:01:50.597Z,22.88
2024-05-09T07:04:42.499Z,21.73
2024-05-09T07:07:29.108Z,19.35
2024-05-09T07:10:25.487Z,21.80
2024-05-09T07:16:10.829Z,22.67
2024-05-09T07:18:57.904Z,23.77
2024-05-09T07:21:51.495Z,21.83
2024-05-09T07:24:38.334Z,21.80
2024-05-09T07:27:28.087Z,23.95
2024-05-09T07:30:22.849Z,20.95
2024-05-09T07:33:21.521Z,20.58
2024-05-09T07:36:09.765Z,20.52
2024-05-09T07:39:01.627Z,18.88
2024-05-09T07:41:48.359Z,17.35
2024-05-09T07:44:37.509Z,19.52
2024-05-09T07:48:56.497Z,19.35
2024-05-09T07:52:23.528Z,19.70
2024-05-09T07:53:46.421Z,18.77
2024-05-09T07:56:42.056Z,18.33
2024-05-09T07:59:28.410Z,19.08
2024-05-09T08:02:17.410Z,17.60
2024-05-09T08:05:06.456Z,17.40
2024-05-09T08:07:54.058Z,16.48
2024-05-09T08:10:43.385Z,17.55
2024-05-09T08:13:35.430Z,17.95
2024-05-09T08:16:22.462Z,14.70
2024-05-09T08:19:12.017Z,16.15
2024-05-09T08:22:07.357Z,13.63
2024-05-09T08:24:54.320Z,13.68
2024-05-09T08:27:43.814Z,13.00
2024-05-09T08:30:37.045Z,12.68
2024-05-09T08:33:27.403Z,13.93
2024-05-09T08:36:14.541Z,12.85
2024-05-09T08:39:03.875Z,14.10
2024-05-09T08:41:51.669Z,12.02
2024-05-09T08:44:40.962Z,11.43
2024-05-09T08:47:32.447Z,10.30
2024-05-09T08:50:32.030Z,10.73
2024-05-09T08:53:27.392Z,13.65
2024-05-09T08:56:17.783Z,11.35
2024-05-09T08:59:07.164Z,9.13
2024-05-09T09:01:57.393Z,10.02
2024-05-09T09:04:56.802Z,12.18
2024-05-09T09:07:48.863Z,12.20
2024-05-09T09:10:38.555Z,12.38
2024-05-09T09:13:25.033Z,10.85
2024-05-09T09:16:14.319Z,10.63
2024-05-09T09:19:00.961Z,10.35
2024-05-09T09:21:53.026Z,8.40
2024-05-09T09:27:29.656Z,9.52
2024-05-09T09:30:30.775Z,13.95
2024-05-09T09:33:24.592Z,10.52
2024-05-09T09:36:13.875Z,12.85
2024-05-09T09:39:06.632Z,9.15
2024-05-09T09:41:57.588Z,10.18
2024-05-09T09:44:54.480Z,11.68
2024-05-09T09:47:48.222Z,11.02
2024-05-09T09:50:37.118Z,10.43
2024-05-09T09:53:26.518Z,9.43
2024-05-09T09:56:18.285Z,12.88
2024-05-09T09:59:08.601Z,8.38
2024-05-09T10:01:55.618Z,8.18
2024-05-09T10:04:45.153Z,8.85
2024-05-09T10:07:33.111Z,7.93
2024-05-09T10:10:31.990Z,9.48
2024-05-09T10:13:34.133Z,9.60
2024-05-09T10:19:24.241Z,10.27
2024-05-09T10:22:13.371Z,9.13
2024-05-09T10:25:05.519Z,9.23
2024-05-09T10:27:58.526Z,9.90
2024-05-09T10:30:48.992Z,11.50
2024-05-09T10:33:41.134Z,9.57
2024-05-09T10:36:29.498Z,10.65
2024-05-09T10:39:19.739Z,14.90
2024-05-09T10:42:10.856Z,11.98
2024-05-09T10:45:02.003Z,9.88
2024-05-09T10:47:52.806Z,12.02
2024-05-09T10:50:43.967Z,10.90
2024-05-09T10:53:30.768Z,11.57
2024-05-09T10:56:20.133Z,12.73
2024-05-09T10:59:06.621Z,11.52
2024-05-09T11:01:56.605Z,10.02
2024-05-09T11:04:46.020Z,10.40
2024-05-09T11:07:35.495Z,10.77
2024-05-09T11:10:27.795Z,11.35
2024-05-09T11:13:33.544Z,10.57
2024-05-09T11:16:21.820Z,9.45
2024-05-09T11:19:19.009Z,10.50
2024-05-09T11:22:09.373Z,8.95
2024-05-09T11:24:58.862Z,8.48
2024-05-09T11:27:45.867Z,9.10
2024-05-09T11:30:35.642Z,9.35
2024-05-09T11:33:22.768Z,9.27
2024-05-09T11:36:12.346Z,9.13
2024-05-09T11:39:01.249Z,8.43
2024-05-09T11:41:50.376Z,11.23
2024-05-09T11:44:39.509Z,7.82
2024-05-09T11:47:26.864Z,8.55
2024-05-09T11:50:26.426Z,9.90
2024-05-09T11:53:17.185Z,8.38
2024-05-09T11:56:12.010Z,10.40
2024-05-09T11:58:58.536Z,8.63
2024-05-09T12:01:47.623Z,9.23
2024-05-09T12:04:34.176Z,7.60
2024-05-09T12:07:24.416Z,8.43
2024-05-09T12:10:16.601Z,9.60
2024-05-09T12:13:11.728Z,8.25
2024-05-09T12:15:58.701Z,8.73
2024-05-09T12:18:48.154Z,7.38
2024-05-09T12:21:34.889Z,6.80
2024-05-09T12:24:25.354Z,10.38
2024-05-09T12:27:12.257Z,8.38
2024-05-09T12:30:04.625Z,6.70
2024-05-09T12:32:53.934Z,6.32
2024-05-09T12:35:46.424Z,5.85
2024-05-09T12:38:33.715Z,5.30
2024-05-09T12:41:23.242Z,6.57
2024-05-09T12:44:09.647Z,7.40
2024-05-09T12:47:01.601Z,6.63
2024-05-09T12:49:48.394Z,5.65
2024-05-09T12:52:37.632Z,7.07
2024-05-09T12:55:24.342Z,6.60
2024-05-09T12:58:14.152Z,7.72
2024-05-09T13:01:01.113Z,9.80
2024-05-09T13:03:53.279Z,8.10
2024-05-09T13:06:40.029Z,6.82
2024-05-09T13:09:29.047Z,10.35
2024-05-09T13:12:15.504Z,5.85
2024-05-09T13:15:04.936Z,8.75
2024-05-09T13:17:51.697Z,10.38
2024-05-09T13:20:43.459Z,9.60
2024-05-09T13:23:29.843Z,6.22
2024-05-09T13:26:19.049Z,13.57
2024-05-09T13:29:05.563Z,10.13
2024-05-09T13:31:54.591Z,9.32
2024-05-09T13:34:44.120Z,8.75
2024-05-09T13:37:33.576Z,8.43
2024-05-09T13:40:31.795Z,7.78
2024-05-09T13:43:22.334Z,6.72
2024-05-09T13:46:11.527Z,10.23
2024-05-09T13:48:58.247Z,7.68
2024-05-09T13:51:47.430Z,8.75
2024-05-09T13:54:37.301Z,10.60
2024-05-09T13:57:26.181Z,9.90
2024-05-09T14:00:27.012Z,7.28
2024-05-09T14:03:22.704Z,7.88
2024-05-09T14:06:13.075Z,5.97
2024-05-09T14:09:05.251Z,8.07
2024-05-09T14:11:54.344Z,6.03
2024-05-09T14:14:43.583Z,7.10
2024-05-09T14:17:30.466Z,8.80
2024-05-09T14:20:28.585Z,11.77
2024-05-09T14:23:18.675Z,11.75
2024-05-09T14:26:28.169Z,8.32
2024-05-09T14:29:18.474Z,6.78
2024-05-09T14:32:07.930Z,7.43
2024-05-09T14:34:54.552Z,5.63
2024-05-09T14:37:43.923Z,5.60
2024-05-09T14:40:40.499Z,7.03
2024-05-09T14:43:32.671Z,6.72
2024-05-09T14:46:23.145Z,4.57
2024-05-09T14:49:12.753Z,5.30
2024-05-09T14:51:59.890Z,7.40
2024-05-09T14:54:59.505Z,6.13
2024-05-09T14:57:47.325Z,6.07
2024-05-09T15:00:39.461Z,7.78
2024-05-09T15:03:36.697Z,4.55
2024-05-09T15:06:23.264Z,5.57
2024-05-09T15:09:12.632Z,4.97
2024-05-09T15:11:59.443Z,7.85
2024-05-09T15:14:48.437Z,4.38
2024-05-09T15:17:35.095Z,5.03
2024-05-09T15:20:33.957Z,4.85
2024-05-09T15:23:22.445Z,5.15
2024-05-09T15:26:11.516Z,5.10
2024-05-09T15:29:00.724Z,7.25
2024-05-09T15:31:47.309Z,4.38
2024-05-09T15:34:36.509Z,3.83
2024-05-09T15:37:25.684Z,6.80
2024-05-09T15:40:18.923Z,4.80
2024-05-09T15:43:13.273Z,6.68
2024-05-09T15:46:02.807Z,5.35
2024-05-09T15:48:52.153Z,7.45
2024-05-09T15:51:38.717Z,5.18
2024-05-09T15:54:30.745Z,5.28
2024-05-09T15:57:18.207Z,4.15
2024-05-09T16:00:15.126Z,5.25
2024-05-09T16:03:09.004Z,7.22
2024-05-09T16:05:58.934Z,6.70
2024-05-09T16:08:45.323Z,4.18
2024-05-09T16:11:39.247Z,4.78
2024-05-09T16:14:25.958Z,6.05
2024-05-09T16:17:15.079Z,4.15
2024-05-09T16:20:06.993Z,4.20
2024-05-09T16:22:58.165Z,7.40
2024-05-09T16:25:48.504Z,4.93
2024-05-09T16:28:41.185Z,5.53
2024-05-09T16:31:28.325Z,5.87
2024-05-09T16:34:18.147Z,6.85
2024-05-09T16:37:06.656Z,4.70
2024-05-09T16:39:56.221Z,4.35
2024-05-09T16:42:42.631Z,6.22
2024-05-09T16:45:35.000Z,4.70
2024-05-09T16:48:22.062Z,4.57
2024-05-09T16:51:11.629Z,4.40
2024-05-09T16:53:58.298Z,4.18
2024-05-09T16:56:47.528Z,4.82
2024-05-09T16:59:34.580Z,6.10
2024-05-09T17:02:27.134Z,4.50
2024-05-09T17:05:17.140Z,4.65
2024-05-09T17:08:06.734Z,4.65
2024-05-09T17:10:53.432Z,5.00
2024-05-09T17:13:45.241Z,9.98
2024-05-09T17:16:35.669Z,6.85
2024-05-09T17:19:27.712Z,6.75
2024-05-09T17:22:15.219Z,6.90
2024-05-09T17:25:05.721Z,5.18
2024-05-09T17:27:52.470Z,6.47
2024-05-09T17:30:42.616Z,5.47
2024-05-09T17:33:29.516Z,8.68
2024-05-09T17:36:21.607Z,7.38
2024-05-09T17:39:08.539Z,5.68
2024-05-09T17:41:57.679Z,6.03
2024-05-09T17:44:44.258Z,7.90
2024-05-09T17:47:33.905Z,5.65
2024-05-09T17:50:27.442Z,5.32
2024-05-09T17:53:25.552Z,7.90
2024-05-09T17:56:11.654Z,6.53
2024-05-09T17:59:01.620Z,7.20
2024-05-09T18:01:50.073Z,8.77
2024-05-09T18:04:39.366Z,7.40
2024-05-09T18:07:26.019Z,4.53
2024-05-09T18:10:25.434Z,4.70
2024-05-09T18:13:16.668Z,6.03
2024-05-09T18:16:06.540Z,7.18
2024-05-09T18:18:53.377Z,8.93
2024-05-09T18:21:43.035Z,6.90
2024-05-09T18:24:29.779Z,9.85
2024-05-09T18:27:22.289Z,6.90
2024-05-09T18:30:23.855Z,16.13
2024-05-09T18:33:18.532Z,6.72
2024-05-09T18:36:05.732Z,6.65
2024-05-09T18:38:54.954Z,5.50
2024-05-09T18:41:41.596Z,6.03
2024-05-09T18:44:34.131Z,8.00
2024-05-09T18:47:20.742Z,9.82
2024-05-09T18:50:14.944Z,7.28
2024-05-09T18:53:12.369Z,6.45
2024-05-09T18:55:59.686Z,8.35
2024-05-09T18:59:08.706Z,5.97
2024-05-09T19:01:58.684Z,8.63
2024-05-09T19:04:48.512Z,11.13
2024-05-09T19:07:35.634Z,9.20
2024-05-09T19:10:28.858Z,8.57
2024-05-09T19:13:20.202Z,7.82
2024-05-09T19:16:10.276Z,10.85
2024-05-09T19:18:59.461Z,9.05
2024-05-09T19:21:48.983Z,9.38
2024-05-09T19:24:35.633Z,15.45
2024-05-09T19:27:24.642Z,12.57
2024-05-09T19:30:17.918Z,9.57
2024-05-09T19:33:15.340Z,11.07
2024-05-09T19:36:05.851Z,13.68
2024-05-09T19:38:55.247Z,12.27
2024-05-09T19:41:41.680Z,12.00
2024-05-09T19:44:31.050Z,12.88
2024-05-09T19:47:17.774Z,10.18
2024-05-09T19:50:11.150Z,14.05
2024-05-09T19:53:05.973Z,10.98
2024-05-09T19:55:55.863Z,12.90
2024-05-09T19:58:42.642Z,12.90
2024-05-09T20:01:31.864Z,9.55
2024-05-09T20:04:20.940Z,10.82
2024-05-09T20:07:08.020Z,10.82
2024-05-09T20:10:00.188Z,11.48
2024-05-09T20:12:49.628Z,14.80
2024-05-09T20:15:37.174Z,9.65
2024-05-09T20:18:26.474Z,12.18
2024-05-09T20:21:12.837Z,14.40
2024-05-09T20:24:02.185Z,18.17
2024-05-09T20:26:51.285Z,14.15
2024-05-09T20:29:40.284Z,18.90
2024-05-09T20:32:30.175Z,11.00
2024-05-09T20:35:19.266Z,12.95
2024-05-09T20:38:06.040Z,12.73
2024-05-09T20:40:55.817Z,11.73
2024-05-09T20:43:47.427Z,11.88
2024-05-09T20:46:33.922Z,13.15
2024-05-09T20:52:10.101Z,14.63
2024-05-09T20:54:59.604Z,13.45
2024-05-09T20:57:46.206Z,17.08
2024-05-09T21:00:41.918Z,14.77
2024-05-09T21:03:32.759Z,16.98
2024-05-09T21:06:21.949Z,15.32
2024-05-09T21:09:08.283Z,17.63
2024-05-09T21:11:57.852Z,24.85
2024-05-09T21:14:44.304Z,25.92
2024-05-09T21:17:35.885Z,27.13
2024-05-09T21:20:29.106Z,28.48
2024-05-09T21:23:21.329Z,40.28
2024-05-09T21:26:08.099Z,30.55
2024-05-09T21:28:57.140Z,21.25
2024-05-09T21:31:43.591Z,25.48
2024-05-09T21:34:35.862Z,28.95
2024-05-09T21:37:25.233Z,24.55
2024-05-09T21:40:16.991Z,23.17
2024-05-09T21:43:13.344Z,21.35
2024-05-09T21:46:00.251Z,24.85
2024-05-09T21:48:49.710Z,22.10
2024-05-09T21:51:38.798Z,21.98
2024-05-09T21:54:27.539Z,24.00
2024-05-09T21:57:15.581Z,22.60
2024-05-09T22:00:11.535Z,17.65
2024-05-09T22:03:00.574Z,18.80
2024-05-09T22:05:49.955Z,23.58
2024-05-09T22:08:39.202Z,19.80
2024-05-09T22:11:28.566Z,23.52
2024-05-09T22:14:15.066Z,24.80
2024-05-09T22:17:04.611Z,23.85
2024-05-09T22:19:51.141Z,18.83
2024-05-09T22:22:41.634Z,23.23
2024-05-09T22:25:31.849Z,21.17
2024-05-09T22:28:22.084Z,21.08
2024-05-09T22:31:09.836Z,20.42
2024-05-09T22:34:00.684Z,25.27
2024-05-09T22:36:47.784Z,22.65
2024-05-09T22:39:36.846Z,25.20
2024-05-09T22:42:26.458Z,25.70
2024-05-09T22:45:15.708Z,24.30
2024-05-09T22:48:02.891Z,21.80
2024-05-09T22:50:52.758Z,23.00
2024-05-09T22:53:39.292Z,22.40
2024-05-09T22:56:32.161Z,26.30
2024-05-09T22:59:21.646Z,24.55
2024-05-09T23:02:10.730Z,24.85
2024-05-09T23:04:58.217Z,25.42
2024-05-09T23:08:07.861Z,25.15
2024-05-09T23:10:54.831Z,22.85
2024-05-09T23:13:44.574Z,25.92
2024-05-09T23:16:34.143Z,26.02
2024-05-09T23:19:23.529Z,27.88
2024-05-09T23:22:09.948Z,22.48
2024-05-09T23:24:59.491Z,20.50
2024-05-09T23:27:46.206Z,24.95
2024-05-09T23:30:38.933Z,21.55
2024-05-09T23:33:30.266Z,24.55
2024-05-09T23:36:19.377Z,20.85
2024-05-09T23:39:06.311Z,22.20
2024-05-09T23:41:55.849Z,22.80
2024-05-09T23:44:42.274Z,18.35
2024-05-09T23:47:31.627Z,19.75
2024-05-09T23:50:26.819Z,19.30
2024-05-09T23:53:23.302Z,16.63
2024-05-09T23:56:09.772Z,17.83
2024-05-09T23:58:58.970Z,19.27
